sensor_id;sensor_type;location;lat;lon;timestamp;pressure;altitude;pressure_sealevel;temperature;humidity
46079;BME280;31820;51.880;-0.518;2022-09-09T20:45:04;99135.47;;;18.91;100.00
46079;BME280;31820;51.880;-0.518;2022-09-09T20:47:30;99138.44;;;18.96;100.00
46079;BME280;31820;51.880;-0.518;2022-09-09T20:49:56;99137.16;;;18.99;100.00
46079;BME280;31820;51.880;-0.518;2022-09-09T20:52:22;99135.91;;;19.02;99.75
46079;BME280;31820;51.880;-0.518;2022-09-09T20:54:48;99138.44;;;19.03;99.25
46079;BME280;31820;51.880;-0.518;2022-09-09T20:57:14;99138.25;;;19.05;98.92
46079;BME280;31820;51.880;-0.518;2022-09-09T20:59:44;99135.31;;;19.06;98.69
46079;BME280;31820;51.880;-0.518;2022-09-09T21:02:12;99146.03;;;19.08;98.30
46079;BME280;31820;51.880;-0.518;2022-09-09T21:04:38;99153.19;;;19.09;97.98
46079;BME280;31820;51.880;-0.518;2022-09-09T21:07:04;99138.47;;;19.10;97.84
46079;BME280;31820;51.880;-0.518;2022-09-09T21:09:32;99148.34;;;19.11;97.94
46079;BME280;31820;51.880;-0.518;2022-09-09T21:11:57;99146.47;;;19.11;97.61
46079;BME280;31820;51.880;-0.518;2022-09-09T21:14:23;99133.81;;;19.04;97.50
46079;BME280;31820;51.880;-0.518;2022-09-09T21:16:48;99145.41;;;19.12;97.61
46079;BME280;31820;51.880;-0.518;2022-09-09T21:19:14;99155.13;;;19.15;97.52
46079;BME280;31820;51.880;-0.518;2022-09-09T21:21:39;99151.50;;;19.14;97.23
46079;BME280;31820;51.880;-0.518;2022-09-09T21:24:05;99155.13;;;19.15;97.29
46079;BME280;31820;51.880;-0.518;2022-09-09T21:26:30;99150.47;;;19.15;97.18
46079;BME280;31820;51.880;-0.518;2022-09-09T21:28:56;99151.31;;;19.16;97.03
46079;BME280;31820;51.880;-0.518;2022-09-09T21:31:21;99140.16;;;19.11;97.12
46079;BME280;31820;51.880;-0.518;2022-09-09T21:33:48;99148.56;;;19.16;96.86
46079;BME280;31820;51.880;-0.518;2022-09-09T21:36:14;99144.81;;;19.17;96.86
46079;BME280;31820;51.880;-0.518;2022-09-09T21:38:40;99143.75;;;19.18;96.72
46079;BME280;31820;51.880;-0.518;2022-09-09T21:41:09;99145.84;;;19.16;96.70
46079;BME280;31820;51.880;-0.518;2022-09-09T21:43:37;99154.66;;;19.18;96.85
46079;BME280;31820;51.880;-0.518;2022-09-09T21:46:08;99148.38;;;19.17;96.59
46079;BME280;31820;51.880;-0.518;2022-09-09T21:48:34;99150.28;;;19.17;96.46
46079;BME280;31820;51.880;-0.518;2022-09-09T21:51:09;99154.66;;;19.18;96.66
46079;BME280;31820;51.880;-0.518;2022-09-09T21:53:35;99152.81;;;19.19;96.59
46079;BME280;31820;51.880;-0.518;2022-09-09T21:56:06;99162.66;;;19.20;96.42
46079;BME280;31820;51.880;-0.518;2022-09-09T21:58:35;99159.09;;;19.19;96.52
46079;BME280;31820;51.880;-0.518;2022-09-09T22:01:10;99164.56;;;19.19;96.57
46079;BME280;31820;51.880;-0.518;2022-09-09T22:03:37;99165.59;;;19.18;96.20
46079;BME280;31820;51.880;-0.518;2022-09-09T22:06:07;99175.50;;;19.19;96.42
46079;BME280;31820;51.880;-0.518;2022-09-09T22:08:33;99171.94;;;19.19;96.62
46079;BME280;31820;51.880;-0.518;2022-09-09T22:11:11;99185.41;;;19.20;96.29
46079;BME280;31820;51.880;-0.518;2022-09-09T22:13:37;99180.97;;;19.19;96.29
46079;BME280;31820;51.880;-0.518;2022-09-09T22:16:07;99184.53;;;19.20;96.39
46079;BME280;31820;51.880;-0.518;2022-09-09T22:18:34;99180.97;;;19.19;96.21
46079;BME280;31820;51.880;-0.518;2022-09-09T22:21:07;99187.28;;;19.20;96.48
46079;BME280;31820;51.880;-0.518;2022-09-09T22:23:33;99191.06;;;19.19;96.41
46079;BME280;31820;51.880;-0.518;2022-09-09T22:26:00;99196.53;;;19.19;95.86
46079;BME280;31820;51.880;-0.518;2022-09-09T22:28:26;99190.44;;;19.16;95.88
46079;BME280;31820;51.880;-0.518;2022-09-09T22:30:51;99196.94;;;19.15;96.13
46079;BME280;31820;51.880;-0.518;2022-09-09T22:33:17;99191.88;;;19.12;96.27
46079;BME280;31820;51.880;-0.518;2022-09-09T22:35:43;99192.72;;;19.13;96.16
46079;BME280;31820;51.880;-0.518;2022-09-09T22:38:11;99190.84;;;19.13;96.12
46079;BME280;31820;51.880;-0.518;2022-09-09T22:40:38;99196.31;;;19.13;96.01
46079;BME280;31820;51.880;-0.518;2022-09-09T22:43:05;99191.06;;;19.12;96.05
46079;BME280;31820;51.880;-0.518;2022-09-09T22:45:33;99202.63;;;19.14;95.84
46079;BME280;31820;51.880;-0.518;2022-09-09T22:47:59;99205.34;;;19.14;95.66
46079;BME280;31820;51.880;-0.518;2022-09-09T22:50:25;99209.97;;;19.13;95.49
46079;BME280;31820;51.880;-0.518;2022-09-09T22:52:52;99208.28;;;19.12;95.73
46079;BME280;31820;51.880;-0.518;2022-09-09T22:55:18;99212.03;;;19.11;95.72
46079;BME280;31820;51.880;-0.518;2022-09-09T22:57:43;99212.91;;;19.12;95.54
46079;BME280;31820;51.880;-0.518;2022-09-09T23:00:09;99210.38;;;19.10;95.48
46079;BME280;31820;51.880;-0.518;2022-09-09T23:02:37;99218.38;;;19.12;95.49
46079;BME280;31820;51.880;-0.518;2022-09-09T23:05:04;99221.13;;;19.12;95.30
46079;BME280;31820;51.880;-0.518;2022-09-09T23:07:34;99213.94;;;19.11;95.40
46079;BME280;31820;51.880;-0.518;2022-09-09T23:10:01;99222.16;;;19.11;95.17
46079;BME280;31820;51.880;-0.518;2022-09-09T23:12:26;99220.44;;;19.10;95.27
46079;BME280;31820;51.880;-0.518;2022-09-09T23:14:54;99217.72;;;19.10;95.31
46079;BME280;31820;51.880;-0.518;2022-09-09T23:17:21;99219.63;;;19.09;95.23
46079;BME280;31820;51.880;-0.518;2022-09-09T23:19:48;99217.09;;;19.08;95.32
46079;BME280;31820;51.880;-0.518;2022-09-09T23:22:23;99218.78;;;19.09;95.16
46079;BME280;31820;51.880;-0.518;2022-09-09T23:24:49;99224.25;;;19.09;95.25
46079;BME280;31820;51.880;-0.518;2022-09-09T23:27:17;99228.84;;;19.08;95.22
46079;BME280;31820;51.880;-0.518;2022-09-09T23:29:42;99228.00;;;19.08;95.17
46079;BME280;31820;51.880;-0.518;2022-09-09T23:32:08;99224.44;;;19.07;95.19
46079;BME280;31820;51.880;-0.518;2022-09-09T23:34:33;99223.59;;;19.07;94.97
46079;BME280;31820;51.880;-0.518;2022-09-09T23:36:59;99229.06;;;19.07;94.86
46079;BME280;31820;51.880;-0.518;2022-09-09T23:39:25;99221.91;;;19.06;94.97
46079;BME280;31820;51.880;-0.518;2022-09-09T23:41:51;99222.97;;;19.05;95.01
46079;BME280;31820;51.880;-0.518;2022-09-09T23:44:16;99226.94;;;19.02;94.84
46079;BME280;31820;51.880;-0.518;2022-09-09T23:46:42;99228.41;;;19.05;95.01
46079;BME280;31820;51.880;-0.518;2022-09-09T23:49:07;99227.59;;;19.04;94.98
46079;BME280;31820;51.880;-0.518;2022-09-09T23:51:34;99226.72;;;19.04;94.91
46079;BME280;31820;51.880;-0.518;2022-09-09T23:54:02;99227.59;;;19.04;95.07
46079;BME280;31820;51.880;-0.518;2022-09-09T23:56:34;99234.09;;;19.03;94.96
46079;BME280;31820;51.880;-0.518;2022-09-09T23:59:02;99232.78;;;18.99;95.14
